Time;durP1;ratioP1;P1;durP2;ratioP2;P2;SDS_P1;SDS_P2;PMS_P1;PMS_P2;Temp;Humidity;BMP_temperature;BMP_pressure;BME280_temperature;BME280_humidity;BME280_pressure;Samples;Min_cycle;Max_cycle;Signal;HPM_P1;HPM_P2
2021/03/13 00:01:37;;;;;;;1.30;0.83;;;5.40;99.90;;;;;;4889116;29;20469;-87
2021/03/13 00:04:04;;;;;;;0.60;0.60;;;5.30;99.90;;;;;;4865587;29;20954;-87
2021/03/13 00:06:31;;;;;;;1.67;0.73;;;5.30;99.90;;;;;;4872498;29;20616;-87
2021/03/13 00:08:57;;;;;;;0.70;0.70;;;5.40;99.90;;;;;;4857905;29;20518;-87
2021/03/13 00:11:25;;;;;;;0.90;0.70;;;5.30;99.90;;;;;;4870568;29;20548;-87
2021/03/13 00:13:51;;;;;;;1.30;0.77;;;5.30;99.90;;;;;;4877161;29;20201;-87
2021/03/13 00:16:18;;;;;;;2.43;0.87;;;5.30;99.90;;;;;;4891328;29;20448;-86
2021/03/13 00:18:46;;;;;;;1.10;0.70;;;5.30;99.90;;;;;;4874124;29;20197;-86
2021/03/13 00:21:15;;;;;;;2.10;0.50;;;5.40;99.90;;;;;;4888137;29;20726;-87
2021/03/13 00:23:41;;;;;;;0.80;0.80;;;5.40;99.90;;;;;;4875218;29;20531;-87
2021/03/13 00:26:07;;;;;;;0.70;0.60;;;5.40;99.90;;;;;;4864451;29;20781;-88
2021/03/13 00:28:36;;;;;;;0.70;0.70;;;5.40;99.90;;;;;;4887231;29;20228;-88
2021/03/13 00:31:01;;;;;;;1.07;0.87;;;5.40;99.90;;;;;;4876436;29;20441;-87
2021/03/13 00:33:30;;;;;;;1.83;0.80;;;5.50;99.90;;;;;;4873057;29;20462;-87
2021/03/13 00:35:58;;;;;;;1.50;1.30;;;5.50;99.90;;;;;;4877797;29;20206;-88
2021/03/13 00:38:24;;;;;;;1.50;0.73;;;5.60;99.90;;;;;;4873481;29;20488;-86
2021/03/13 00:40:51;;;;;;;0.80;0.50;;;5.60;99.90;;;;;;4875713;29;20957;-86
2021/03/13 00:43:19;;;;;;;2.40;0.63;;;5.80;99.90;;;;;;4894310;29;20353;-87
2021/03/13 00:45:52;;;;;;;1.37;0.70;;;5.80;99.90;;;;;;4878919;29;20475;-87
2021/03/13 00:48:18;;;;;;;0.80;0.50;;;5.90;99.90;;;;;;4877740;29;20496;-86
2021/03/13 00:50:47;;;;;;;0.90;0.60;;;5.90;99.90;;;;;;4898203;29;20938;-86
2021/03/13 00:53:16;;;;;;;1.33;0.73;;;6.00;99.90;;;;;;4881328;29;20460;-86
2021/03/13 00:55:44;;;;;;;0.57;0.40;;;6.00;99.90;;;;;;4877459;29;20552;-86
2021/03/13 00:58:10;;;;;;;1.07;0.67;;;6.10;99.90;;;;;;4878967;29;21779;-86
2021/03/13 01:00:39;;;;;;;0.50;0.50;;;6.10;99.90;;;;;;4880208;29;20475;-86
2021/03/13 01:03:06;;;;;;;0.50;0.30;;;6.10;99.90;;;;;;4883845;29;20905;-85
2021/03/13 01:05:34;;;;;;;0.60;0.47;;;6.10;99.90;;;;;;4879426;29;20539;-86
2021/03/13 01:08:01;;;;;;;0.77;0.60;;;6.10;99.90;;;;;;4890774;29;20895;-86
2021/03/13 01:10:39;;;;;;;0.30;0.30;;;6.20;99.90;;;;;;4897954;29;20460;-87
2021/03/13 01:13:06;;;;;;;0.50;0.50;;;6.20;99.90;;;;;;4883096;29;20523;-87
2021/03/13 01:15:32;;;;;;;2.30;0.60;;;6.20;99.90;;;;;;4880434;29;20460;-86
2021/03/13 01:18:00;;;;;;;0.47;0.47;;;6.20;99.90;;;;;;4880426;29;20837;-87
2021/03/13 01:20:33;;;;;;;2.50;0.90;;;6.10;99.90;;;;;;4885529;29;20788;-87
2021/03/13 01:22:59;;;;;;;3.07;0.80;;;5.90;99.90;;;;;;4894021;29;20467;-87
2021/03/13 01:25:26;;;;;;;0.70;0.70;;;5.80;99.90;;;;;;4864519;29;20506;-87
2021/03/13 01:27:52;;;;;;;2.47;0.70;;;5.70;99.90;;;;;;4878409;29;20311;-87
2021/03/13 01:30:25;;;;;;;2.10;0.70;;;5.50;99.90;;;;;;4893460;29;20452;-87
2021/03/13 01:32:53;;;;;;;2.03;0.73;;;5.40;99.90;;;;;;4898614;29;20474;-87
2021/03/13 01:35:20;;;;;;;1.80;1.10;;;5.40;99.90;;;;;;4896017;29;20926;-87
2021/03/13 01:37:46;;;;;;;4.30;1.00;;;5.30;99.90;;;;;;4881753;29;20552;-87
2021/03/13 01:40:16;;;;;;;1.60;0.80;;;5.20;99.90;;;;;;4880746;29;20531;-86
2021/03/13 01:42:51;;;;;;;0.93;0.93;;;5.20;99.90;;;;;;4891171;29;20476;-86
2021/03/13 01:45:22;;;;;;;2.20;1.03;;;5.20;99.90;;;;;;4893015;29;20468;-86
2021/03/13 01:47:49;;;;;;;0.93;0.93;;;5.20;99.90;;;;;;4881870;29;20797;-86
2021/03/13 01:50:18;;;;;;;2.90;1.20;;;5.20;99.90;;;;;;4877571;29;23000;-86
2021/03/13 01:52:48;;;;;;;2.33;0.90;;;5.20;99.90;;;;;;4879114;29;20521;-86
2021/03/13 01:55:17;;;;;;;3.43;1.40;;;5.10;99.90;;;;;;4875754;29;20208;-87
2021/03/13 01:58:09;;;;;;;1.67;1.40;;;5.10;99.90;;;;;;4878788;29;20520;-87
2021/03/13 02:00:56;;;;;;;1.97;1.20;;;5.00;99.90;;;;;;4892735;29;20504;-87
2021/03/13 02:03:25;;;;;;;3.00;1.50;;;5.00;99.90;;;;;;4879791;29;20441;-87
2021/03/13 02:05:54;;;;;;;3.50;1.30;;;5.00;99.90;;;;;;4893732;29;20549;-86
2021/03/13 02:08:49;;;;;;;2.00;1.10;;;4.90;99.90;;;;;;4878609;29;21090;-86
2021/03/13 02:11:27;;;;;;;1.37;1.27;;;5.00;99.90;;;;;;4810626;29;20200;-86
2021/03/13 02:14:19;;;;;;;0.70;0.70;;;5.00;99.90;;;;;;4882771;29;20536;-87
2021/03/13 02:17:37;;;;;;;4.17;0.90;;;4.90;99.90;;;;;;4872776;29;20469;-87
2021/03/13 02:20:43;;;;;;;0.83;0.70;;;4.90;99.90;;;;;;4874954;29;20471;-88
2021/03/13 02:23:10;;;;;;;2.53;1.03;;;4.90;99.90;;;;;;4893561;29;20770;-87
2021/03/13 02:26:11;;;;;;;1.13;0.60;;;4.90;99.90;;;;;;4873109;29;20464;-87
2021/03/13 02:28:58;;;;;;;0.50;0.50;;;5.10;99.90;;;;;;4890756;29;20535;-87
2021/03/13 02:31:26;;;;;;;2.00;0.80;;;5.20;99.90;;;;;;4877226;29;20550;-86
2021/03/13 02:33:57;;;;;;;5.77;0.77;;;5.30;99.90;;;;;;4870096;29;20496;-86
2021/03/13 02:36:25;;;;;;;2.60;0.80;;;5.50;99.90;;;;;;4879443;29;20508;-87
2021/03/13 02:39:07;;;;;;;2.10;0.70;;;5.50;99.90;;;;;;4875641;29;20978;-87
2021/03/13 02:41:43;;;;;;;1.53;0.90;;;5.50;99.90;;;;;;4876135;29;20490;-88
2021/03/13 02:44:14;;;;;;;0.60;0.60;;;5.70;99.90;;;;;;4872221;29;20465;-86
2021/03/13 02:46:49;;;;;;;1.67;0.70;;;5.80;99.90;;;;;;4875331;29;20986;-87
2021/03/13 02:49:18;;;;;;;1.80;0.67;;;5.90;99.90;;;;;;4872360;29;20587;-86
2021/03/13 02:51:45;;;;;;;1.53;0.63;;;5.90;99.90;;;;;;4875559;29;20530;-88
2021/03/13 02:54:19;;;;;;;1.27;0.70;;;5.90;99.90;;;;;;4871719;29;20577;-88
2021/03/13 02:56:45;;;;;;;1.33;0.70;;;6.00;99.90;;;;;;4886618;29;20455;-88
2021/03/13 02:59:18;;;;;;;2.10;0.90;;;6.00;99.90;;;;;;4890820;29;20827;-87
2021/03/13 03:01:47;;;;;;;1.50;0.80;;;6.00;99.90;;;;;;4882704;29;20819;-88
2021/03/13 03:04:16;;;;;;;1.00;0.83;;;6.00;99.90;;;;;;4877755;29;20448;-88
2021/03/13 03:06:46;;;;;;;4.73;1.10;;;6.00;99.90;;;;;;4881745;29;20523;-87
2021/03/13 03:09:14;;;;;;;1.27;1.03;;;6.00;99.90;;;;;;4867967;29;20503;-88
2021/03/13 03:11:43;;;;;;;2.10;0.77;;;6.00;99.90;;;;;;4891654;29;20818;-88
2021/03/13 03:14:12;;;;;;;3.37;0.97;;;5.90;99.90;;;;;;4879245;29;20464;-87
2021/03/13 03:16:40;;;;;;;0.90;0.60;;;6.00;99.90;;;;;;4877444;29;20525;-87
2021/03/13 03:19:08;;;;;;;2.40;0.73;;;6.00;99.90;;;;;;4879626;29;20472;-87
2021/03/13 03:21:37;;;;;;;2.40;1.03;;;6.00;99.90;;;;;;4880144;29;20456;-88
2021/03/13 03:24:03;;;;;;;0.80;0.80;;;6.00;99.90;;;;;;4877625;29;20503;-88
2021/03/13 03:26:37;;;;;;;3.03;0.90;;;6.00;99.90;;;;;;4876785;29;20783;-89
2021/03/13 03:29:03;;;;;;;1.03;0.50;;;6.10;99.90;;;;;;4879842;29;20497;-88
2021/03/13 03:31:31;;;;;;;2.17;0.70;;;6.10;99.90;;;;;;4878648;29;20456;-88
2021/03/13 03:33:57;;;;;;;3.03;0.73;;;6.10;99.90;;;;;;4893680;29;20456;-86
2021/03/13 03:36:23;;;;;;;3.33;0.90;;;6.20;99.90;;;;;;4889288;29;21072;-86
2021/03/13 03:38:49;;;;;;;2.27;0.87;;;6.30;99.90;;;;;;4880029;29;20727;-86
2021/03/13 03:41:15;;;;;;;1.40;0.80;;;6.30;99.90;;;;;;4877407;29;20576;-86
2021/03/13 03:43:48;;;;;;;3.20;0.60;;;6.40;99.90;;;;;;4876737;29;20202;-86
2021/03/13 03:46:15;;;;;;;5.67;1.10;;;6.40;99.90;;;;;;4877573;29;20521;-87
2021/03/13 03:48:44;;;;;;;1.50;0.70;;;6.30;99.90;;;;;;4879870;29;21012;-87
2021/03/13 03:51:13;;;;;;;0.77;0.70;;;6.40;99.90;;;;;;4877193;29;20905;-87
2021/03/13 03:53:44;;;;;;;2.33;0.70;;;6.40;99.90;;;;;;4877544;29;20456;-87
2021/03/13 03:56:12;;;;;;;1.20;0.57;;;6.50;99.90;;;;;;4874554;29;20448;-87
2021/03/13 03:58:44;;;;;;;4.67;0.90;;;6.50;99.90;;;;;;4878181;29;20536;-87
2021/03/13 04:01:12;;;;;;;1.13;0.70;;;6.60;99.90;;;;;;4875709;29;20446;-86
2021/03/13 04:03:43;;;;;;;3.57;0.90;;;6.60;99.90;;;;;;4879976;29;20452;-87
2021/03/13 04:06:12;;;;;;;2.27;0.50;;;6.70;99.90;;;;;;4880885;29;21094;-86
2021/03/13 04:08:42;;;;;;;2.27;0.60;;;6.70;99.90;;;;;;4875911;29;21269;-86
2021/03/13 04:11:12;;;;;;;2.80;0.60;;;6.80;99.90;;;;;;4875155;29;20452;-87
2021/03/13 04:13:42;;;;;;;1.37;0.90;;;6.90;99.90;;;;;;4873764;29;20464;-87
2021/03/13 04:16:10;;;;;;;1.17;0.70;;;6.90;99.90;;;;;;4880694;29;20447;-87
2021/03/13 04:18:44;;;;;;;1.20;0.67;;;7.00;99.90;;;;;;4878752;29;20928;-86
2021/03/13 04:21:11;;;;;;;1.07;0.60;;;7.00;99.90;;;;;;4881371;29;20454;-86
2021/03/13 04:23:40;;;;;;;2.40;0.50;;;6.90;99.90;;;;;;4879716;29;20595;-86
2021/03/13 04:26:08;;;;;;;2.67;0.83;;;6.90;99.90;;;;;;4883148;29;20579;-87
2021/03/13 04:28:34;;;;;;;2.83;0.70;;;7.00;99.90;;;;;;4877055;29;21316;-86
2021/03/13 04:31:02;;;;;;;0.63;0.50;;;7.00;99.90;;;;;;4879016;29;20574;-86
2021/03/13 04:33:28;;;;;;;3.17;0.57;;;7.00;99.90;;;;;;4896160;29;20484;-86
2021/03/13 04:35:54;;;;;;;2.17;0.60;;;7.00;99.90;;;;;;4876990;29;21454;-86
2021/03/13 04:38:22;;;;;;;3.90;0.90;;;7.10;99.90;;;;;;4889724;29;20477;-86
2021/03/13 04:40:51;;;;;;;1.47;0.57;;;7.20;99.90;;;;;;4880353;29;20521;-86
2021/03/13 04:43:19;;;;;;;3.47;0.53;;;7.20;99.90;;;;;;4880999;29;20472;-86
2021/03/13 04:45:46;;;;;;;0.93;0.57;;;7.10;99.90;;;;;;4881180;29;20442;-85
2021/03/13 04:48:12;;;;;;;2.20;1.00;;;7.10;99.90;;;;;;4880425;29;20515;-86
2021/03/13 04:50:42;;;;;;;3.07;0.50;;;7.10;99.90;;;;;;4879545;29;20484;-86
2021/03/13 04:53:08;;;;;;;1.57;0.60;;;7.20;99.90;;;;;;4878459;29;20548;-86
2021/03/13 04:55:34;;;;;;;2.77;0.50;;;7.10;99.90;;;;;;4877829;29;20456;-86
2021/03/13 04:58:00;;;;;;;1.43;0.40;;;7.10;99.90;;;;;;4880217;29;20477;-86
2021/03/13 05:00:28;;;;;;;1.00;0.87;;;7.10;99.90;;;;;;4881485;29;20977;-87
2021/03/13 05:02:57;;;;;;;1.90;0.40;;;7.10;99.90;;;;;;4877995;29;20187;-87
2021/03/13 05:05:23;;;;;;;1.43;0.60;;;7.10;99.90;;;;;;4880084;29;20465;-87
2021/03/13 05:07:48;;;;;;;0.60;0.40;;;7.20;99.90;;;;;;4880749;29;20590;-86
2021/03/13 05:10:15;;;;;;;1.27;0.70;;;7.20;99.90;;;;;;4876582;29;20556;-87
2021/03/13 05:12:42;;;;;;;2.20;0.50;;;7.20;99.90;;;;;;4876806;29;20228;-87
2021/03/13 05:15:08;;;;;;;0.97;0.50;;;7.20;99.90;;;;;;4879356;29;20445;-87
2021/03/13 05:17:34;;;;;;;4.23;0.80;;;7.20;99.90;;;;;;4878378;29;20475;-87
2021/03/13 05:20:00;;;;;;;1.40;0.57;;;7.20;99.90;;;;;;4877109;29;20886;-86
2021/03/13 05:22:26;;;;;;;0.60;0.40;;;7.20;99.90;;;;;;4878508;29;20813;-86
2021/03/13 05:24:52;;;;;;;0.93;0.33;;;7.20;99.90;;;;;;4874320;29;20217;-88
2021/03/13 05:27:18;;;;;;;1.30;0.60;;;7.20;99.90;;;;;;4878872;29;20209;-88
2021/03/13 05:29:44;;;;;;;2.93;0.63;;;7.20;99.90;;;;;;4877004;29;20457;-88
2021/03/13 05:32:09;;;;;;;3.60;0.70;;;7.30;99.90;;;;;;4876791;29;20200;-86
2021/03/13 05:34:35;;;;;;;2.70;0.90;;;7.30;99.90;;;;;;4877026;29;20491;-88
2021/03/13 05:37:01;;;;;;;1.63;0.90;;;7.30;99.90;;;;;;4890919;29;20216;-89
2021/03/13 05:39:30;;;;;;;1.03;0.93;;;7.30;99.90;;;;;;4876854;29;20207;-89
2021/03/13 05:41:57;;;;;;;0.93;0.40;;;7.20;99.90;;;;;;4873240;29;20479;-88
2021/03/13 05:44:23;;;;;;;1.50;0.80;;;7.20;99.90;;;;;;4880684;29;20464;-88
2021/03/13 05:46:50;;;;;;;2.50;0.53;;;7.30;99.90;;;;;;4889721;29;20852;-87
2021/03/13 05:49:17;;;;;;;2.20;0.83;;;7.20;99.90;;;;;;4859358;29;20490;-87
2021/03/13 05:51:47;;;;;;;3.00;0.40;;;7.30;99.90;;;;;;4874604;29;20472;-88
2021/03/13 05:54:16;;;;;;;2.10;0.70;;;7.30;99.90;;;;;;4867141;29;20459;-87
2021/03/13 05:56:45;;;;;;;0.53;0.40;;;7.30;99.90;;;;;;4862965;29;20463;-88
2021/03/13 05:59:15;;;;;;;3.13;0.67;;;7.30;99.90;;;;;;4872641;29;20559;-87
2021/03/13 06:01:42;;;;;;;1.07;1.00;;;7.40;99.90;;;;;;4872962;29;20452;-87
2021/03/13 06:04:08;;;;;;;0.50;0.47;;;7.30;99.90;;;;;;4877070;29;20203;-86
2021/03/13 06:06:50;;;;;;;1.07;1.03;;;7.40;99.90;;;;;;4873875;29;20619;-85
2021/03/13 06:09:16;;;;;;;2.93;1.20;;;7.40;99.90;;;;;;4874717;29;20651;-86
2021/03/13 06:11:45;;;;;;;2.80;1.03;;;7.50;99.90;;;;;;4887395;29;21314;-85
2021/03/13 06:14:11;;;;;;;0.87;0.50;;;7.50;99.90;;;;;;4871555;29;20506;-85
2021/03/13 06:19:13;;;;;;;0.90;0.43;;;7.50;99.90;;;;;;4887109;29;20195;-86
2021/03/13 06:21:45;;;;;;;0.97;0.50;;;7.50;99.90;;;;;;4871929;29;20466;-86
2021/03/13 06:24:24;;;;;;;0.60;0.60;;;7.40;99.90;;;;;;4874386;29;22216;-86
2021/03/13 06:26:57;;;;;;;1.27;0.30;;;7.50;99.90;;;;;;4876294;29;20451;-86
2021/03/13 06:29:27;;;;;;;1.20;0.53;;;7.60;99.90;;;;;;4873871;29;20481;-87
2021/03/13 06:32:16;;;;;;;0.57;0.57;;;7.80;99.90;;;;;;4864215;29;20461;-86
2021/03/13 06:34:43;;;;;;;0.90;0.40;;;7.70;99.90;;;;;;4872755;29;20579;-86
2021/03/13 06:37:25;;;;;;;1.37;0.60;;;7.70;99.90;;;;;;4878540;29;20512;-87
2021/03/13 06:39:52;;;;;;;0.60;0.60;;;7.80;99.90;;;;;;4875740;29;20908;-87
2021/03/13 06:42:30;;;;;;;0.77;0.60;;;7.70;99.90;;;;;;4875705;29;20455;-87
2021/03/13 06:45:07;;;;;;;3.33;0.60;;;7.70;99.90;;;;;;4876454;29;20451;-87
2021/03/13 06:47:36;;;;;;;1.40;0.70;;;7.70;99.90;;;;;;4874698;29;20689;-87
2021/03/13 06:50:17;;;;;;;1.70;0.40;;;7.70;99.90;;;;;;4877305;29;20478;-88
2021/03/13 06:53:34;;;;;;;1.53;0.80;;;7.80;99.90;;;;;;4872793;29;20547;-90
2021/03/13 06:56:18;;;;;;;1.00;0.67;;;7.80;99.90;;;;;;4873261;29;20459;-89
2021/03/13 06:58:52;;;;;;;0.83;0.67;;;8.10;99.90;;;;;;4873328;29;20519;-90
2021/03/13 07:01:30;;;;;;;2.70;0.70;;;8.10;99.90;;;;;;4876166;29;20533;-88
2021/03/13 07:03:57;;;;;;;1.00;0.60;;;8.10;99.90;;;;;;4862110;29;20457;-92
2021/03/13 07:06:23;;;;;;;2.10;1.20;;;8.10;99.90;;;;;;4873999;29;20958;-89
2021/03/13 07:08:50;;;;;;;4.57;1.00;;;8.20;99.90;;;;;;4873279;29;20496;-93
2021/03/13 07:11:24;;;;;;;1.33;0.60;;;8.20;99.90;;;;;;4874788;29;20836;-94
2021/03/13 07:13:56;;;;;;;1.57;0.70;;;8.20;99.90;;;;;;4875640;29;20459;-90
2021/03/13 07:16:28;;;;;;;2.20;1.20;;;8.20;99.90;;;;;;4879903;29;20900;-91
2021/03/13 07:18:59;;;;;;;1.80;0.90;;;8.20;99.90;;;;;;4886544;29;20439;-92
2021/03/13 07:21:26;;;;;;;1.27;0.70;;;8.20;99.90;;;;;;4874738;29;20610;-91
2021/03/13 07:23:55;;;;;;;0.93;0.70;;;8.30;99.90;;;;;;4876320;29;22061;-90
2021/03/13 07:26:24;;;;;;;2.93;0.60;;;8.30;99.90;;;;;;4876048;29;20479;-90
2021/03/13 07:28:56;;;;;;;1.60;0.83;;;8.40;99.90;;;;;;4878843;29;21008;-92
2021/03/13 07:31:22;;;;;;;1.37;1.00;;;8.40;99.90;;;;;;4871768;29;20517;-93
2021/03/13 07:33:49;;;;;;;1.37;0.43;;;8.50;99.90;;;;;;4872638;29;21102;-90
2021/03/13 07:36:23;;;;;;;0.70;0.70;;;8.50;99.90;;;;;;4873048;29;20459;-90
2021/03/13 07:38:51;;;;;;;1.90;0.90;;;8.50;99.90;;;;;;4885696;29;20452;-89
2021/03/13 07:41:18;;;;;;;2.00;0.60;;;8.60;99.90;;;;;;4869289;29;20581;-90
2021/03/13 07:43:45;;;;;;;2.00;0.60;;;8.60;99.90;;;;;;4877015;29;20962;-91
2021/03/13 07:46:14;;;;;;;1.70;0.50;;;8.60;99.90;;;;;;4874808;29;20812;-92
2021/03/13 07:48:40;;;;;;;1.50;0.80;;;8.60;99.90;;;;;;4872756;29;20576;-93
2021/03/13 07:51:11;;;;;;;13.30;1.77;;;8.70;99.90;;;;;;4878985;29;21081;-92
2021/03/13 07:53:43;;;;;;;1.00;0.70;;;8.70;99.90;;;;;;4873114;29;20448;-91
2021/03/13 07:56:12;;;;;;;2.40;0.70;;;8.70;99.90;;;;;;4873647;29;20464;-91
2021/03/13 07:58:39;;;;;;;2.20;0.80;;;8.80;99.80;;;;;;4870245;29;20467;-91
2021/03/13 08:01:05;;;;;;;2.30;0.70;;;8.80;99.50;;;;;;4886436;29;20994;-90
2021/03/13 08:03:48;;;;;;;3.27;0.90;;;8.80;99.60;;;;;;4864514;29;20930;-90
2021/03/13 08:06:16;;;;;;;1.73;0.80;;;8.80;99.50;;;;;;4874065;29;20525;-89
2021/03/13 08:08:50;;;;;;;0.83;0.40;;;8.90;99.50;;;;;;4874887;29;20828;-91
2021/03/13 08:11:17;;;;;;;0.90;0.80;;;8.90;99.20;;;;;;4876497;29;20440;-92
2021/03/13 08:13:43;;;;;;;0.73;0.50;;;9.00;98.90;;;;;;4892090;29;20816;-90
2021/03/13 08:16:30;;;;;;;1.60;0.80;;;9.10;98.80;;;;;;4879487;29;20439;-92
2021/03/13 08:18:57;;;;;;;0.80;0.60;;;9.20;98.90;;;;;;4867606;29;20211;-95
2021/03/13 08:21:43;;;;;;;0.70;0.60;;;9.40;98.70;;;;;;4872463;29;20841;-90
2021/03/13 08:24:09;;;;;;;0.77;0.67;;;9.60;97.20;;;;;;4887318;29;20508;-91
2021/03/13 08:26:35;;;;;;;2.50;0.70;;;9.60;96.80;;;;;;4870652;29;20524;-91
2021/03/13 08:29:03;;;;;;;0.30;0.30;;;9.60;97.10;;;;;;4873189;29;21008;-94
2021/03/13 08:31:29;;;;;;;0.50;0.50;;;9.60;96.80;;;;;;4878177;29;20446;-92
2021/03/13 08:34:02;;;;;;;0.80;0.50;;;9.60;96.90;;;;;;4876984;29;20464;-91
2021/03/13 08:36:45;;;;;;;0.80;0.40;;;9.60;95.40;;;;;;4887414;29;20257;-93
2021/03/13 08:39:22;;;;;;;0.50;0.40;;;9.80;93.60;;;;;;4875649;29;20862;-93
2021/03/13 08:41:51;;;;;;;0.93;0.87;;;10.00;93.90;;;;;;4875317;29;20455;-88
2021/03/13 08:44:34;;;;;;;1.43;0.47;;;10.10;92.20;;;;;;4886100;29;20505;-90
2021/03/13 08:47:08;;;;;;;1.17;0.73;;;10.30;92.40;;;;;;4875237;29;20929;-90
2021/03/13 08:49:47;;;;;;;1.60;0.63;;;10.50;91.70;;;;;;4872398;29;20551;-87
2021/03/13 08:52:18;;;;;;;1.17;0.57;;;10.90;91.20;;;;;;4874938;29;20638;-91
2021/03/13 08:54:48;;;;;;;1.80;1.50;;;10.90;89.80;;;;;;4873250;29;20459;-90
2021/03/13 08:57:25;;;;;;;1.43;0.47;;;10.80;87.40;;;;;;4877418;29;20449;-89
2021/03/13 08:59:54;;;;;;;1.57;0.50;;;10.70;88.60;;;;;;4872199;29;20497;-94
2021/03/13 09:02:24;;;;;;;1.70;0.60;;;10.70;87.10;;;;;;4878591;29;20441;-90
2021/03/13 09:04:56;;;;;;;4.87;0.80;;;10.50;88.00;;;;;;4875792;29;20474;-90
2021/03/13 09:07:25;;;;;;;0.77;0.60;;;10.50;87.30;;;;;;4871242;29;20461;-90
2021/03/13 09:09:55;;;;;;;0.50;0.43;;;10.50;87.60;;;;;;4882592;29;21640;-93
2021/03/13 09:12:21;;;;;;;3.60;0.50;;;10.50;86.50;;;;;;4878907;29;20478;-92
2021/03/13 09:14:52;;;;;;;0.30;0.30;;;10.50;85.00;;;;;;4871980;29;20451;-91
2021/03/13 09:17:22;;;;;;;1.60;0.50;;;10.60;85.00;;;;;;4875257;29;20445;-91
2021/03/13 09:19:50;;;;;;;0.93;0.77;;;10.60;85.10;;;;;;4892407;29;20458;-94
2021/03/13 09:22:19;;;;;;;0.93;0.50;;;10.70;85.20;;;;;;4877643;29;20479;-93
2021/03/13 09:24:55;;;;;;;1.00;0.40;;;10.70;84.50;;;;;;4873570;29;20510;-91
2021/03/13 09:27:27;;;;;;;0.67;0.67;;;10.70;85.80;;;;;;4876107;29;20793;-90
2021/03/13 09:29:55;;;;;;;0.70;0.60;;;10.80;85.60;;;;;;4870066;29;20978;-91
2021/03/13 09:32:22;;;;;;;2.37;0.60;;;10.70;84.10;;;;;;4877310;29;20578;-89
2021/03/13 09:34:57;;;;;;;0.57;0.50;;;10.70;84.10;;;;;;4888887;29;20593;-91
2021/03/13 09:37:29;;;;;;;1.10;1.00;;;10.70;83.30;;;;;;4877337;29;20557;-94
2021/03/13 09:40:02;;;;;;;1.20;0.57;;;10.70;84.10;;;;;;4875201;29;20473;-91
2021/03/13 09:42:29;;;;;;;1.17;0.40;;;10.70;84.50;;;;;;4878172;29;20456;-90
2021/03/13 09:45:11;;;;;;;2.83;0.60;;;10.70;83.80;;;;;;4883483;29;20823;-91
2021/03/13 09:47:46;;;;;;;1.33;0.50;;;10.70;85.80;;;;;;4883295;29;20448;-91
2021/03/13 09:50:18;;;;;;;1.17;0.43;;;10.80;84.30;;;;;;4884817;29;20460;-92
2021/03/13 09:52:45;;;;;;;1.50;0.40;;;10.70;85.00;;;;;;4869909;29;20456;-92
2021/03/13 09:55:14;;;;;;;0.90;0.30;;;10.70;84.70;;;;;;4871103;29;20453;-95
2021/03/13 09:57:43;;;;;;;1.17;0.33;;;11.00;84.50;;;;;;4868551;29;20919;-89
2021/03/13 10:00:10;;;;;;;0.93;0.43;;;11.00;83.60;;;;;;4870044;29;20805;-92
2021/03/13 10:02:37;;;;;;;1.10;1.00;;;11.00;84.60;;;;;;4874764;29;20924;-87
2021/03/13 10:05:04;;;;;;;0.30;0.30;;;10.90;84.50;;;;;;4878037;29;20588;-89
2021/03/13 10:07:30;;;;;;;1.30;0.70;;;10.90;86.30;;;;;;4874669;29;20460;-90
2021/03/13 10:09:59;;;;;;;0.80;0.50;;;10.90;86.10;;;;;;4873171;29;20986;-91
2021/03/13 10:12:25;;;;;;;1.50;0.40;;;10.90;85.40;;;;;;4875522;29;20573;-91
2021/03/13 10:14:53;;;;;;;1.00;0.70;;;11.00;85.90;;;;;;4880515;29;20528;-92
2021/03/13 10:17:19;;;;;;;1.90;0.40;;;11.00;86.60;;;;;;4880099;29;20487;-92
2021/03/13 10:19:45;;;;;;;0.40;0.40;;;10.90;86.10;;;;;;4874257;29;20571;-91
2021/03/13 10:22:22;;;;;;;1.40;0.50;;;10.90;86.20;;;;;;4871248;29;20249;-89
2021/03/13 10:24:53;;;;;;;0.83;0.30;;;10.90;86.20;;;;;;4874266;29;20572;-89
2021/03/13 10:27:24;;;;;;;1.47;0.40;;;10.90;87.30;;;;;;4875265;29;20466;-90
2021/03/13 10:29:54;;;;;;;1.13;0.40;;;10.90;87.20;;;;;;4875360;29;20553;-90
2021/03/13 10:32:26;;;;;;;1.10;0.50;;;11.00;86.60;;;;;;4873054;29;21849;-90
2021/03/13 10:35:22;;;;;;;1.53;0.50;;;10.90;87.40;;;;;;4878455;29;20490;-89
2021/03/13 10:37:49;;;;;;;0.93;0.50;;;11.00;88.60;;;;;;4864966;29;20473;-89
2021/03/13 10:40:31;;;;;;;0.50;0.50;;;11.00;88.20;;;;;;4868114;29;20455;-89
2021/03/13 10:43:33;;;;;;;3.30;0.50;;;11.00;87.20;;;;;;4879834;29;20459;-91
2021/03/13 10:45:58;;;;;;;1.30;0.60;;;11.00;87.70;;;;;;4868300;29;20792;-91
2021/03/13 10:48:32;;;;;;;0.40;0.40;;;11.00;87.20;;;;;;4871746;29;20488;-90
2021/03/13 10:50:59;;;;;;;0.87;0.33;;;11.10;87.50;;;;;;4876536;29;20217;-89
2021/03/13 10:53:38;;;;;;;1.70;0.80;;;11.10;87.10;;;;;;4876686;29;20459;-89
2021/03/13 10:56:06;;;;;;;1.80;1.00;;;11.00;87.00;;;;;;4868108;29;20614;-94
2021/03/13 10:58:37;;;;;;;3.13;0.90;;;11.10;86.50;;;;;;4867836;29;21718;-89
2021/03/13 11:01:07;;;;;;;1.30;1.00;;;11.00;85.90;;;;;;4870945;29;20463;-87
2021/03/13 11:03:34;;;;;;;5.27;1.20;;;11.00;86.60;;;;;;4863956;29;20459;-88
2021/03/13 11:06:00;;;;;;;3.10;0.90;;;11.00;85.80;;;;;;4881974;29;21019;-90
2021/03/13 11:08:27;;;;;;;1.40;1.13;;;11.00;86.30;;;;;;4868614;29;20502;-90
2021/03/13 11:10:57;;;;;;;3.43;0.90;;;11.00;85.00;;;;;;4868549;29;22201;-89
2021/03/13 11:13:25;;;;;;;0.93;0.77;;;11.10;85.70;;;;;;4882233;29;20549;-88
2021/03/13 11:15:52;;;;;;;2.23;0.90;;;11.10;86.80;;;;;;4873087;29;20542;-88
2021/03/13 11:18:21;;;;;;;6.40;0.97;;;11.10;85.10;;;;;;4863122;29;20475;-87
2021/03/13 11:20:48;;;;;;;0.70;0.70;;;11.00;84.80;;;;;;4878685;29;20820;-87
2021/03/13 11:23:14;;;;;;;0.80;0.60;;;11.10;86.00;;;;;;4873322;29;20456;-88
2021/03/13 11:25:44;;;;;;;2.77;0.80;;;11.00;84.90;;;;;;4870023;29;20466;-89
2021/03/13 11:28:09;;;;;;;0.40;0.30;;;11.00;83.60;;;;;;4871199;29;21065;-88
2021/03/13 11:30:36;;;;;;;0.70;0.47;;;11.00;83.90;;;;;;4871984;29;20458;-86
2021/03/13 11:33:02;;;;;;;2.90;0.57;;;11.10;83.70;;;;;;4870131;29;20211;-88
2021/03/13 11:35:31;;;;;;;0.60;0.60;;;11.10;83.00;;;;;;4873399;29;20817;-89
2021/03/13 11:38:09;;;;;;;0.50;0.50;;;11.20;84.30;;;;;;4871807;29;20467;-89
2021/03/13 11:40:35;;;;;;;0.53;0.50;;;11.20;85.00;;;;;;4881883;29;20545;-89
2021/03/13 11:43:04;;;;;;;0.50;0.50;;;11.20;84.30;;;;;;4872522;29;20457;-89
2021/03/13 11:45:30;;;;;;;1.73;0.50;;;11.20;83.70;;;;;;4877777;29;20262;-93
2021/03/13 11:47:58;;;;;;;0.53;0.53;;;11.20;84.50;;;;;;4868471;29;21092;-91
2021/03/13 11:50:25;;;;;;;0.80;0.80;;;11.20;83.60;;;;;;4883332;29;20302;-91
2021/03/13 11:52:54;;;;;;;1.63;0.60;;;11.20;82.10;;;;;;4871943;29;20452;-91
2021/03/13 11:55:20;;;;;;;0.97;0.40;;;11.30;81.80;;;;;;4869486;29;21119;-89
2021/03/13 11:57:46;;;;;;;0.50;0.30;;;11.40;79.80;;;;;;4866831;29;20471;-88
2021/03/13 12:00:12;;;;;;;0.43;0.30;;;11.40;80.90;;;;;;4886631;29;20544;-88
2021/03/13 12:02:38;;;;;;;0.87;0.50;;;11.40;80.30;;;;;;4872270;29;20310;-88
2021/03/13 12:05:06;;;;;;;1.73;0.30;;;11.40;81.20;;;;;;4870977;29;20518;-88
2021/03/13 12:07:32;;;;;;;0.30;0.20;;;11.40;80.90;;;;;;4875439;29;20496;-88
2021/03/13 12:09:58;;;;;;;0.63;0.40;;;11.30;79.80;;;;;;4876492;29;20480;-86
2021/03/13 12:12:24;;;;;;;0.40;0.30;;;11.30;78.70;;;;;;4874413;29;20472;-88
2021/03/13 12:14:49;;;;;;;3.33;0.80;;;11.30;80.00;;;;;;4876680;29;20204;-88
2021/03/13 12:17:15;;;;;;;0.90;0.40;;;11.30;79.10;;;;;;4873327;29;20220;-87
2021/03/13 12:19:41;;;;;;;0.60;0.60;;;11.30;80.10;;;;;;4867756;29;20350;-87
2021/03/13 12:22:09;;;;;;;0.50;0.40;;;11.30;79.70;;;;;;4871344;29;20240;-89
2021/03/13 12:24:35;;;;;;;0.90;0.57;;;11.30;80.50;;;;;;4867408;29;20469;-87
2021/03/13 12:27:01;;;;;;;1.80;0.80;;;11.30;81.40;;;;;;4871389;29;20468;-88
2021/03/13 12:29:27;;;;;;;0.70;0.50;;;11.30;81.80;;;;;;4882474;29;20496;-86
2021/03/13 12:31:53;;;;;;;0.90;0.50;;;11.10;84.90;;;;;;4873256;29;20455;-88
2021/03/13 12:34:18;;;;;;;0.70;0.60;;;11.10;85.80;;;;;;4869550;29;20465;-89
2021/03/13 12:36:55;;;;;;;0.93;0.50;;;11.10;85.30;;;;;;4871161;29;20220;-91
2021/03/13 12:39:23;;;;;;;2.37;0.47;;;11.10;86.20;;;;;;4874144;29;20187;-87
2021/03/13 12:41:49;;;;;;;0.50;0.40;;;11.10;86.70;;;;;;4877663;29;20456;-88
2021/03/13 12:44:15;;;;;;;0.40;0.30;;;11.10;88.10;;;;;;4874250;29;20443;-88
2021/03/13 12:46:41;;;;;;;7.63;0.60;;;11.10;87.20;;;;;;4876132;29;20208;-86
2021/03/13 12:49:06;;;;;;;0.40;0.30;;;11.30;88.40;;;;;;4885663;29;20527;-89
2021/03/13 12:51:34;;;;;;;2.33;0.70;;;11.40;88.80;;;;;;4873755;29;21045;-89
2021/03/13 12:54:00;;;;;;;2.00;0.53;;;11.50;89.70;;;;;;4877653;29;20196;-89
2021/03/13 12:56:26;;;;;;;0.67;0.50;;;11.50;87.70;;;;;;4877966;29;20459;-90
2021/03/13 12:58:54;;;;;;;0.40;0.40;;;11.60;87.90;;;;;;4872230;29;20193;-88
2021/03/13 13:01:20;;;;;;;0.60;0.60;;;11.70;87.50;;;;;;4869649;29;20452;-93
2021/03/13 13:04:00;;;;;;;1.53;0.80;;;11.90;89.20;;;;;;4892574;29;20475;-96
2021/03/13 13:06:26;;;;;;;1.70;0.40;;;11.70;87.10;;;;;;4885730;29;20504;-90
2021/03/13 13:08:56;;;;;;;0.50;0.40;;;11.70;87.00;;;;;;4876544;29;20573;-90
2021/03/13 13:11:23;;;;;;;0.40;0.33;;;11.80;89.70;;;;;;4875517;29;20476;-89